sensor_id;sensor_type;location;lat;lon;timestamp;temperature;humidity
11280;DHT22;5696;50.928;6.960;2022-10-16T05:35:13;14.90;99.90
11280;DHT22;5696;50.928;6.960;2022-10-16T05:37:38;14.90;99.90
11280;DHT22;5696;50.928;6.960;2022-10-16T05:40:04;14.90;99.90
11280;DHT22;5696;50.928;6.960;2022-10-16T05:42:30;14.90;99.90
11280;DHT22;5696;50.928;6.960;2022-10-16T05:44:56;14.90;99.90
11280;DHT22;5696;50.928;6.960;2022-10-16T05:47:22;14.90;99.90
11280;DHT22;5696;50.928;6.960;2022-10-16T05:49:47;14.80;99.90
11280;DHT22;5696;50.928;6.960;2022-10-16T05:52:13;14.70;99.90
11280;DHT22;5696;50.928;6.960;2022-10-16T05:54:38;14.70;99.90
11280;DHT22;5696;50.928;6.960;2022-10-16T05:57:04;14.60;99.90
11280;DHT22;5696;50.928;6.960;2022-10-16T05:59:31;14.60;99.90
11280;DHT22;5696;50.928;6.960;2022-10-16T06:01:57;14.60;99.90
11280;DHT22;5696;50.928;6.960;2022-10-16T06:04:22;14.50;99.90
11280;DHT22;5696;50.928;6.960;2022-10-16T06:06:48;14.50;99.90
11280;DHT22;5696;50.928;6.960;2022-10-16T06:09:14;14.50;99.90
11280;DHT22;5696;50.928;6.960;2022-10-16T06:11:40;14.50;99.90
11280;DHT22;5696;50.928;6.960;2022-10-16T06:14:05;14.50;99.90
11280;DHT22;5696;50.928;6.960;2022-10-16T06:16:36;14.50;99.90
11280;DHT22;5696;50.928;6.960;2022-10-16T06:19:02;14.50;99.90
11280;DHT22;5696;50.928;6.960;2022-10-16T06:21:31;14.50;99.90
11280;DHT22;5696;50.928;6.960;2022-10-16T06:23:58;14.50;99.90
11280;DHT22;5696;50.928;6.960;2022-10-16T06:26:26;14.60;99.90
11280;DHT22;5696;50.928;6.960;2022-10-16T06:28:54;14.70;99.90
11280;DHT22;5696;50.928;6.960;2022-10-16T06:31:20;14.80;99.90
11280;DHT22;5696;50.928;6.960;2022-10-16T06:33:50;14.80;99.90
11280;DHT22;5696;50.928;6.960;2022-10-16T06:36:16;14.90;99.90
11280;DHT22;5696;50.928;6.960;2022-10-16T06:38:43;15.00;99.90
11280;DHT22;5696;50.928;6.960;2022-10-16T06:41:14;15.10;99.90
11280;DHT22;5696;50.928;6.960;2022-10-16T06:43:41;15.20;99.90
11280;DHT22;5696;50.928;6.960;2022-10-16T06:46:09;15.30;99.90
11280;DHT22;5696;50.928;6.960;2022-10-16T06:48:35;15.40;99.90
11280;DHT22;5696;50.928;6.960;2022-10-16T06:51:07;15.60;99.90
11280;DHT22;5696;50.928;6.960;2022-10-16T06:53:36;15.60;99.90
11280;DHT22;5696;50.928;6.960;2022-10-16T06:56:16;15.70;99.90
11280;DHT22;5696;50.928;6.960;2022-10-16T06:58:43;15.90;99.90
11280;DHT22;5696;50.928;6.960;2022-10-16T07:01:10;15.90;99.90
11280;DHT22;5696;50.928;6.960;2022-10-16T07:03:38;16.00;99.90
11280;DHT22;5696;50.928;6.960;2022-10-16T07:06:05;16.00;99.90
11280;DHT22;5696;50.928;6.960;2022-10-16T07:08:32;16.10;99.90
11280;DHT22;5696;50.928;6.960;2022-10-16T07:11:00;16.20;99.90
11280;DHT22;5696;50.928;6.960;2022-10-16T07:13:33;16.30;99.90
11280;DHT22;5696;50.928;6.960;2022-10-16T07:16:07;16.50;99.90
11280;DHT22;5696;50.928;6.960;2022-10-16T07:18:33;16.60;99.90
11280;DHT22;5696;50.928;6.960;2022-10-16T07:21:07;16.70;99.90
11280;DHT22;5696;50.928;6.960;2022-10-16T07:23:33;16.90;99.90
11280;DHT22;5696;50.928;6.960;2022-10-16T07:25:59;16.90;99.90
11280;DHT22;5696;50.928;6.960;2022-10-16T07:28:24;16.90;99.90
11280;DHT22;5696;50.928;6.960;2022-10-16T07:30:50;16.90;99.90
11280;DHT22;5696;50.928;6.960;2022-10-16T07:33:16;16.90;99.90
11280;DHT22;5696;50.928;6.960;2022-10-16T07:35:52;16.90;99.90
11280;DHT22;5696;50.928;6.960;2022-10-16T07:38:19;16.90;99.90
11280;DHT22;5696;50.928;6.960;2022-10-16T07:40:45;16.80;99.90
11280;DHT22;5696;50.928;6.960;2022-10-16T07:43:11;16.80;99.90
11280;DHT22;5696;50.928;6.960;2022-10-16T07:45:37;16.80;99.90
11280;DHT22;5696;50.928;6.960;2022-10-16T07:48:03;16.70;99.90
11280;DHT22;5696;50.928;6.960;2022-10-16T07:50:29;16.60;99.90
11280;DHT22;5696;50.928;6.960;2022-10-16T07:52:55;16.60;99.90
11280;DHT22;5696;50.928;6.960;2022-10-16T07:55:20;16.60;99.90
11280;DHT22;5696;50.928;6.960;2022-10-16T07:57:46;16.60;99.90
11280;DHT22;5696;50.928;6.960;2022-10-16T08:00:12;16.60;99.90
11280;DHT22;5696;50.928;6.960;2022-10-16T08:02:42;16.70;99.90
11280;DHT22;5696;50.928;6.960;2022-10-16T08:05:08;16.60;99.90
11280;DHT22;5696;50.928;6.960;2022-10-16T08:07:33;16.60;99.90
11280;DHT22;5696;50.928;6.960;2022-10-16T08:09:59;16.50;99.90
11280;DHT22;5696;50.928;6.960;2022-10-16T08:12:26;16.60;99.90
11280;DHT22;5696;50.928;6.960;2022-10-16T08:14:51;16.60;99.90
11280;DHT22;5696;50.928;6.960;2022-10-16T08:17:17;16.70;99.90
11280;DHT22;5696;50.928;6.960;2022-10-16T08:19:46;16.80;99.90
11280;DHT22;5696;50.928;6.960;2022-10-16T08:22:13;17.00;99.90
11280;DHT22;5696;50.928;6.960;2022-10-16T08:24:39;17.20;99.90
11280;DHT22;5696;50.928;6.960;2022-10-16T08:27:05;17.30;99.90
11280;DHT22;5696;50.928;6.960;2022-10-16T08:29:31;17.60;99.90
11280;DHT22;5696;50.928;6.960;2022-10-16T08:31:56;17.70;99.90
11280;DHT22;5696;50.928;6.960;2022-10-16T08:34:22;17.90;99.90
11280;DHT22;5696;50.928;6.960;2022-10-16T08:36:47;18.00;99.90
11280;DHT22;5696;50.928;6.960;2022-10-16T08:39:13;18.10;99.90
11280;DHT22;5696;50.928;6.960;2022-10-16T08:47:21;18.20;99.90
11280;DHT22;5696;50.928;6.960;2022-10-16T08:49:57;18.30;99.90
11280;DHT22;5696;50.928;6.960;2022-10-16T08:52:28;18.30;99.90
11280;DHT22;5696;50.928;6.960;2022-10-16T08:54:55;18.20;99.90
11280;DHT22;5696;50.928;6.960;2022-10-16T08:57:24;18.20;99.90
11280;DHT22;5696;50.928;6.960;2022-10-16T08:59:50;18.30;99.90
11280;DHT22;5696;50.928;6.960;2022-10-16T09:02:37;18.30;99.90
11280;DHT22;5696;50.928;6.960;2022-10-16T09:05:14;18.20;99.90
11280;DHT22;5696;50.928;6.960;2022-10-16T09:11:34;18.30;99.90
11280;DHT22;5696;50.928;6.960;2022-10-16T09:14:28;18.40;99.90
11280;DHT22;5696;50.928;6.960;2022-10-16T09:16:53;18.40;99.90
11280;DHT22;5696;50.928;6.960;2022-10-16T09:19:30;18.50;99.90
11280;DHT22;5696;50.928;6.960;2022-10-16T09:21:57;18.60;99.90
11280;DHT22;5696;50.928;6.960;2022-10-16T09:24:26;18.60;99.90
11280;DHT22;5696;50.928;6.960;2022-10-16T09:26:51;18.70;99.90
11280;DHT22;5696;50.928;6.960;2022-10-16T09:29:20;18.60;99.90
11280;DHT22;5696;50.928;6.960;2022-10-16T09:31:47;18.70;99.90
11280;DHT22;5696;50.928;6.960;2022-10-16T09:34:30;18.70;99.90
11280;DHT22;5696;50.928;6.960;2022-10-16T09:36:59;18.80;99.90
11280;DHT22;5696;50.928;6.960;2022-10-16T09:39:26;19.00;99.90
11280;DHT22;5696;50.928;6.960;2022-10-16T09:41:52;19.10;99.90
11280;DHT22;5696;50.928;6.960;2022-10-16T09:46:49;19.20;99.90
11280;DHT22;5696;50.928;6.960;2022-10-16T09:49:24;19.20;99.90
11280;DHT22;5696;50.928;6.960;2022-10-16T09:52:02;19.20;99.90
11280;DHT22;5696;50.928;6.960;2022-10-16T09:54:28;19.40;99.90
11280;DHT22;5696;50.928;6.960;2022-10-16T09:57:07;19.40;99.90
11280;DHT22;5696;50.928;6.960;2022-10-16T09:59:49;19.40;99.90
11280;DHT22;5696;50.928;6.960;2022-10-16T10:02:18;19.50;99.90
11280;DHT22;5696;50.928;6.960;2022-10-16T10:04:51;19.30;99.90
11280;DHT22;5696;50.928;6.960;2022-10-16T10:07:24;19.30;99.90
11280;DHT22;5696;50.928;6.960;2022-10-16T10:09:51;19.20;99.90
11280;DHT22;5696;50.928;6.960;2022-10-16T10:12:19;19.40;99.90
11280;DHT22;5696;50.928;6.960;2022-10-16T10:14:53;19.30;99.90
11280;DHT22;5696;50.928;6.960;2022-10-16T10:17:23;19.30;99.90
11280;DHT22;5696;50.928;6.960;2022-10-16T10:22:31;19.40;99.90
11280;DHT22;5696;50.928;6.960;2022-10-16T10:25:12;19.50;99.90
11280;DHT22;5696;50.928;6.960;2022-10-16T10:31:06;20.20;99.90
11280;DHT22;5696;50.928;6.960;2022-10-16T10:34:35;20.40;99.90
11280;DHT22;5696;50.928;6.960;2022-10-16T10:36:37;20.20;99.90
11280;DHT22;5696;50.928;6.960;2022-10-16T10:39:25;20.20;99.90
11280;DHT22;5696;50.928;6.960;2022-10-16T10:42:36;20.20;99.90
11280;DHT22;5696;50.928;6.960;2022-10-16T10:50:37;20.30;99.90
11280;DHT22;5696;50.928;6.960;2022-10-16T11:02:18;21.00;99.90
11280;DHT22;5696;50.928;6.960;2022-10-16T11:08:16;21.20;99.90
11280;DHT22;5696;50.928;6.960;2022-10-16T11:16:08;20.90;99.90
11280;DHT22;5696;50.928;6.960;2022-10-16T11:18:52;20.70;99.90
11280;DHT22;5696;50.928;6.960;2022-10-16T11:21:21;20.70;99.90
11280;DHT22;5696;50.928;6.960;2022-10-16T11:24:33;20.60;99.90
11280;DHT22;5696;50.928;6.960;2022-10-16T11:26:50;20.90;99.90
11280;DHT22;5696;50.928;6.960;2022-10-16T11:29:24;20.90;99.90
11280;DHT22;5696;50.928;6.960;2022-10-16T11:31:58;20.90;99.90
11280;DHT22;5696;50.928;6.960;2022-10-16T11:34:49;21.00;99.90
11280;DHT22;5696;50.928;6.960;2022-10-16T11:37:41;21.00;99.90
11280;DHT22;5696;50.928;6.960;2022-10-16T11:40:25;21.00;99.90
11280;DHT22;5696;50.928;6.960;2022-10-16T11:45:46;21.20;99.90
11280;DHT22;5696;50.928;6.960;2022-10-16T11:48:30;21.50;99.90
11280;DHT22;5696;50.928;6.960;2022-10-16T11:51:19;21.50;99.90
11280;DHT22;5696;50.928;6.960;2022-10-16T11:54:13;21.40;99.90
11280;DHT22;5696;50.928;6.960;2022-10-16T11:56:43;21.30;99.90
11280;DHT22;5696;50.928;6.960;2022-10-16T12:01:54;21.60;99.90
11280;DHT22;5696;50.928;6.960;2022-10-16T12:04:36;21.80;99.90
11280;DHT22;5696;50.928;6.960;2022-10-16T12:07:22;21.90;99.90
11280;DHT22;5696;50.928;6.960;2022-10-16T12:09:48;21.60;99.90
11280;DHT22;5696;50.928;6.960;2022-10-16T12:12:25;21.30;99.90
11280;DHT22;5696;50.928;6.960;2022-10-16T12:15:03;21.20;99.90
11280;DHT22;5696;50.928;6.960;2022-10-16T12:17:43;21.10;99.90
11280;DHT22;5696;50.928;6.960;2022-10-16T12:22:41;21.20;99.90
11280;DHT22;5696;50.928;6.960;2022-10-16T12:30:42;21.30;99.90
11280;DHT22;5696;50.928;6.960;2022-10-16T12:33:25;21.50;99.90
11280;DHT22;5696;50.928;6.960;2022-10-16T12:35:51;21.60;99.90
11280;DHT22;5696;50.928;6.960;2022-10-16T12:38:21;21.60;99.90
11280;DHT22;5696;50.928;6.960;2022-10-16T12:41:07;21.60;99.90
11280;DHT22;5696;50.928;6.960;2022-10-16T12:43:41;21.90;99.90
11280;DHT22;5696;50.928;6.960;2022-10-16T12:48:43;21.70;99.90
11280;DHT22;5696;50.928;6.960;2022-10-16T12:54:25;21.60;99.90
11280;DHT22;5696;50.928;6.960;2022-10-16T13:10:26;21.70;99.90
11280;DHT22;5696;50.928;6.960;2022-10-16T13:15:52;21.70;99.90
11280;DHT22;5696;50.928;6.960;2022-10-16T13:18:29;21.70;99.90
11280;DHT22;5696;50.928;6.960;2022-10-16T13:26:26;21.40;99.90
11280;DHT22;5696;50.928;6.960;2022-10-16T13:28:58;21.40;99.90
11280;DHT22;5696;50.928;6.960;2022-10-16T13:31:25;21.40;99.90
11280;DHT22;5696;50.928;6.960;2022-10-16T13:33:56;21.50;99.90
11280;DHT22;5696;50.928;6.960;2022-10-16T13:36:27;21.80;99.90
11280;DHT22;5696;50.928;6.960;2022-10-16T13:39:09;21.90;99.90
11280;DHT22;5696;50.928;6.960;2022-10-16T13:41:36;21.90;99.90
11280;DHT22;5696;50.928;6.960;2022-10-16T13:44:01;21.80;99.90
11280;DHT22;5696;50.928;6.960;2022-10-16T13:46:27;22.00;99.90
11280;DHT22;5696;50.928;6.960;2022-10-16T13:51:23;22.30;99.90
11280;DHT22;5696;50.928;6.960;2022-10-16T13:53:49;22.10;99.90
11280;DHT22;5696;50.928;6.960;2022-10-16T13:56:17;22.00;99.90
11280;DHT22;5696;50.928;6.960;2022-10-16T13:58:44;22.10;99.90
11280;DHT22;5696;50.928;6.960;2022-10-16T14:01:23;22.10;99.90
11280;DHT22;5696;50.928;6.960;2022-10-16T14:03:50;22.10;99.90
11280;DHT22;5696;50.928;6.960;2022-10-16T14:06:20;21.90;99.90
11280;DHT22;5696;50.928;6.960;2022-10-16T14:09:00;21.80;99.90
11280;DHT22;5696;50.928;6.960;2022-10-16T14:11:26;21.70;99.90
11280;DHT22;5696;50.928;6.960;2022-10-16T14:13:53;21.60;99.90
11280;DHT22;5696;50.928;6.960;2022-10-16T14:16:25;21.60;99.90
11280;DHT22;5696;50.928;6.960;2022-10-16T14:19:03;21.60;99.90
11280;DHT22;5696;50.928;6.960;2022-10-16T14:21:31;21.70;99.90
11280;DHT22;5696;50.928;6.960;2022-10-16T14:23:57;21.50;99.90
11280;DHT22;5696;50.928;6.960;2022-10-16T14:26:26;21.50;99.90
11280;DHT22;5696;50.928;6.960;2022-10-16T14:29:12;21.30;99.90
11280;DHT22;5696;50.928;6.960;2022-10-16T14:31:38;21.30;99.90
11280;DHT22;5696;50.928;6.960;2022-10-16T14:34:52;21.30;99.90
11280;DHT22;5696;50.928;6.960;2022-10-16T14:37:25;21.40;99.90
11280;DHT22;5696;50.928;6.960;2022-10-16T14:39:52;21.40;99.90
11280;DHT22;5696;50.928;6.960;2022-10-16T14:42:20;21.40;99.90
11280;DHT22;5696;50.928;6.960;2022-10-16T14:44:48;21.30;99.90
11280;DHT22;5696;50.928;6.960;2022-10-16T14:47:19;21.20;99.90
11280;DHT22;5696;50.928;6.960;2022-10-16T14:49:53;21.10;99.90
11280;DHT22;5696;50.928;6.960;2022-10-16T14:52:24;21.10;99.90
11280;DHT22;5696;50.928;6.960;2022-10-16T14:54:50;21.10;99.90
11280;DHT22;5696;50.928;6.960;2022-10-16T14:57:22;21.30;99.90
11280;DHT22;5696;50.928;6.960;2022-10-16T14:59:49;21.20;99.90
11280;DHT22;5696;50.928;6.960;2022-10-16T15:02:32;21.20;99.90
11280;DHT22;5696;50.928;6.960;2022-10-16T15:04:59;21.10;99.90
11280;DHT22;5696;50.928;6.960;2022-10-16T15:07:30;21.00;99.90
11280;DHT22;5696;50.928;6.960;2022-10-16T15:09:56;20.90;99.90
11280;DHT22;5696;50.928;6.960;2022-10-16T15:12:23;20.70;99.90
11280;DHT22;5696;50.928;6.960;2022-10-16T15:14:48;20.60;99.90
11280;DHT22;5696;50.928;6.960;2022-10-16T15:17:14;20.60;99.90
11280;DHT22;5696;50.928;6.960;2022-10-16T15:19:39;20.60;99.90
11280;DHT22;5696;50.928;6.960;2022-10-16T15:22:05;20.50;99.90
11280;DHT22;5696;50.928;6.960;2022-10-16T15:24:31;20.50;99.90
11280;DHT22;5696;50.928;6.960;2022-10-16T15:26:56;20.50;99.90
11280;DHT22;5696;50.928;6.960;2022-10-16T15:29:22;20.40;99.90
11280;DHT22;5696;50.928;6.960;2022-10-16T15:31:47;20.50;99.90
11280;DHT22;5696;50.928;6.960;2022-10-16T15:34:13;20.40;99.90
11280;DHT22;5696;50.928;6.960;2022-10-16T15:36:39;20.40;99.90
11280;DHT22;5696;50.928;6.960;2022-10-16T15:39:16;20.30;99.90
11280;DHT22;5696;50.928;6.960;2022-10-16T15:41:42;20.30;99.90
11280;DHT22;5696;50.928;6.960;2022-10-16T15:44:08;20.20;99.90
11280;DHT22;5696;50.928;6.960;2022-10-16T15:46:34;20.10;99.90
11280;DHT22;5696;50.928;6.960;2022-10-16T15:49:01;20.10;99.90
11280;DHT22;5696;50.928;6.960;2022-10-16T15:51:27;20.00;99.90
11280;DHT22;5696;50.928;6.960;2022-10-16T15:53:56;20.00;99.90
11280;DHT22;5696;50.928;6.960;2022-10-16T15:56:22;20.00;99.90
11280;DHT22;5696;50.928;6.960;2022-10-16T15:58:54;19.90;99.90
11280;DHT22;5696;50.928;6.960;2022-10-16T16:01:20;19.90;99.90
11280;DHT22;5696;50.928;6.960;2022-10-16T16:03:46;19.80;99.90
11280;DHT22;5696;50.928;6.960;2022-10-16T16:06:13;19.80;99.90
11280;DHT22;5696;50.928;6.960;2022-10-16T16:08:39;19.80;99.90
11280;DHT22;5696;50.928;6.960;2022-10-16T16:11:09;19.80;99.90
11280;DHT22;5696;50.928;6.960;2022-10-16T16:13:35;19.70;99.90
11280;DHT22;5696;50.928;6.960;2022-10-16T16:16:08;19.60;99.90
11280;DHT22;5696;50.928;6.960;2022-10-16T16:18:34;19.60;99.90
11280;DHT22;5696;50.928;6.960;2022-10-16T16:21:00;19.60;99.90
11280;DHT22;5696;50.928;6.960;2022-10-16T16:23:25;19.60;99.90
11280;DHT22;5696;50.928;6.960;2022-10-16T16:28:35;19.40;99.90
11280;DHT22;5696;50.928;6.960;2022-10-16T16:31:01;19.40;99.90
11280;DHT22;5696;50.928;6.960;2022-10-16T16:33:27;19.30;99.90
11280;DHT22;5696;50.928;6.960;2022-10-16T16:36:00;19.30;99.90
11280;DHT22;5696;50.928;6.960;2022-10-16T16:38:26;19.20;99.90
11280;DHT22;5696;50.928;6.960;2022-10-16T16:40:52;19.10;99.90
11280;DHT22;5696;50.928;6.960;2022-10-16T16:43:19;19.10;99.90
11280;DHT22;5696;50.928;6.960;2022-10-16T16:45:44;19.00;99.90
11280;DHT22;5696;50.928;6.960;2022-10-16T16:48:10;18.90;99.90
11280;DHT22;5696;50.928;6.960;2022-10-16T16:50:36;19.00;99.90
11280;DHT22;5696;50.928;6.960;2022-10-16T16:53:02;18.90;99.90
11280;DHT22;5696;50.928;6.960;2022-10-16T16:55:28;18.90;99.90
11280;DHT22;5696;50.928;6.960;2022-10-16T16:57:54;18.90;99.90
11280;DHT22;5696;50.928;6.960;2022-10-16T17:00:19;18.90;99.90
11280;DHT22;5696;50.928;6.960;2022-10-16T17:02:48;18.80;99.90
11280;DHT22;5696;50.928;6.960;2022-10-16T17:05:14;18.80;99.90
11280;DHT22;5696;50.928;6.960;2022-10-16T17:07:40;18.80;99.90
11280;DHT22;5696;50.928;6.960;2022-10-16T17:10:06;18.80;99.90
11280;DHT22;5696;50.928;6.960;2022-10-16T17:12:32;18.70;99.90
11280;DHT22;5696;50.928;6.960;2022-10-16T17:14:58;18.70;99.90
11280;DHT22;5696;50.928;6.960;2022-10-16T17:17:23;18.70;99.90
11280;DHT22;5696;50.928;6.960;2022-10-16T17:19:49;18.60;99.90
11280;DHT22;5696;50.928;6.960;2022-10-16T17:22:15;18.60;99.90
11280;DHT22;5696;50.928;6.960;2022-10-16T17:24:41;18.60;99.90
11280;DHT22;5696;50.928;6.960;2022-10-16T17:27:07;18.60;99.90
11280;DHT22;5696;50.928;6.960;2022-10-16T17:29:34;18.50;99.90
11280;DHT22;5696;50.928;6.960;2022-10-16T17:31:59;18.50;99.90
11280;DHT22;5696;50.928;6.960;2022-10-16T17:34:25;18.50;99.90
11280;DHT22;5696;50.928;6.960;2022-10-16T17:36:51;18.50;99.90
11280;DHT22;5696;50.928;6.960;2022-10-16T17:39:18;18.50;99.90
11280;DHT22;5696;50.928;6.960;2022-10-16T17:41:45;18.50;99.90
11280;DHT22;5696;50.928;6.960;2022-10-16T17:44:12;18.50;99.90
11280;DHT22;5696;50.928;6.960;2022-10-16T17:46:52;18.50;99.90
11280;DHT22;5696;50.928;6.960;2022-10-16T17:49:19;18.50;99.90
11280;DHT22;5696;50.928;6.960;2022-10-16T17:51:47;18.50;99.90
11280;DHT22;5696;50.928;6.960;2022-10-16T17:54:13;18.50;99.90
11280;DHT22;5696;50.928;6.960;2022-10-16T17:56:40;18.50;99.90
11280;DHT22;5696;50.928;6.960;2022-10-16T17:59:05;18.40;99.90
11280;DHT22;5696;50.928;6.960;2022-10-16T18:01:37;18.40;99.90
11280;DHT22;5696;50.928;6.960;2022-10-16T18:04:13;18.50;99.90
11280;DHT22;5696;50.928;6.960;2022-10-16T18:06:40;18.50;99.90
11280;DHT22;5696;50.928;6.960;2022-10-16T18:09:08;18.40;99.90
11280;DHT22;5696;50.928;6.960;2022-10-16T18:11:35;18.40;99.90
11280;DHT22;5696;50.928;6.960;2022-10-16T18:14:01;18.40;99.90
11280;DHT22;5696;50.928;6.960;2022-10-16T18:16:29;18.30;99.90
11280;DHT22;5696;50.928;6.960;2022-10-16T18:18:55;18.30;99.90
11280;DHT22;5696;50.928;6.960;2022-10-16T18:21:22;18.30;99.90
11280;DHT22;5696;50.928;6.960;2022-10-16T18:23:48;18.30;99.90
11280;DHT22;5696;50.928;6.960;2022-10-16T18:26:15;18.30;99.90
11280;DHT22;5696;50.928;6.960;2022-10-16T18:28:41;18.30;99.90
11280;DHT22;5696;50.928;6.960;2022-10-16T18:31:11;18.30;99.90
11280;DHT22;5696;50.928;6.960;2022-10-16T18:33:37;18.30;99.90
11280;DHT22;5696;50.928;6.960;2022-10-16T18:36:07;18.20;99.90
11280;DHT22;5696;50.928;6.960;2022-10-16T18:38:34;18.20;99.90
11280;DHT22;5696;50.928;6.960;2022-10-16T18:41:00;18.20;99.90
11280;DHT22;5696;50.928;6.960;2022-10-16T18:43:27;18.20;99.90
11280;DHT22;5696;50.928;6.960;2022-10-16T18:45:57;18.30;99.90
11280;DHT22;5696;50.928;6.960;2022-10-16T18:48:23;18.30;99.90
11280;DHT22;5696;50.928;6.960;2022-10-16T18:50:48;18.20;99.90
11280;DHT22;5696;50.928;6.960;2022-10-16T18:53:14;18.30;99.90
11280;DHT22;5696;50.928;6.960;2022-10-16T18:55:40;18.20;99.90
11280;DHT22;5696;50.928;6.960;2022-10-16T18:58:06;18.20;99.90
11280;DHT22;5696;50.928;6.960;2022-10-16T19:00:32;18.20;99.90
11280;DHT22;5696;50.928;6.960;2022-10-16T19:02:58;18.10;99.90
11280;DHT22;5696;50.928;6.960;2022-10-16T19:05:24;18.20;99.90
11280;DHT22;5696;50.928;6.960;2022-10-16T19:07:49;18.10;99.90
11280;DHT22;5696;50.928;6.960;2022-10-16T19:10:17;18.10;99.90
11280;DHT22;5696;50.928;6.960;2022-10-16T19:12:43;18.10;99.90
11280;DHT22;5696;50.928;6.960;2022-10-16T19:15:09;18.10;99.90
11280;DHT22;5696;50.928;6.960;2022-10-16T19:17:35;18.00;99.90
11280;DHT22;5696;50.928;6.960;2022-10-16T19:20:04;18.00;99.90
11280;DHT22;5696;50.928;6.960;2022-10-16T19:22:30;18.00;99.90
11280;DHT22;5696;50.928;6.960;2022-10-16T19:25:16;18.00;99.90
11280;DHT22;5696;50.928;6.960;2022-10-16T19:27:41;18.00;99.90
11280;DHT22;5696;50.928;6.960;2022-10-16T19:30:07;18.00;99.90
11280;DHT22;5696;50.928;6.960;2022-10-16T19:32:33;18.00;99.90
11280;DHT22;5696;50.928;6.960;2022-10-16T19:34:59;17.90;99.90
11280;DHT22;5696;50.928;6.960;2022-10-16T19:37:24;17.90;99.90
11280;DHT22;5696;50.928;6.960;2022-10-16T19:39:52;17.90;99.90
11280;DHT22;5696;50.928;6.960;2022-10-16T19:42:17;17.90;99.90
11280;DHT22;5696;50.928;6.960;2022-10-16T19:44:43;17.90;99.90
11280;DHT22;5696;50.928;6.960;2022-10-16T19:47:09;17.80;99.90
11280;DHT22;5696;50.928;6.960;2022-10-16T19:49:35;17.80;99.90
11280;DHT22;5696;50.928;6.960;2022-10-16T19:52:01;17.80;99.90
11280;DHT22;5696;50.928;6.960;2022-10-16T19:54:26;17.80;99.90
11280;DHT22;5696;50.928;6.960;2022-10-16T19:56:52;17.90;99.90
11280;DHT22;5696;50.928;6.960;2022-10-16T19:59:18;17.90;99.90
11280;DHT22;5696;50.928;6.960;2022-10-16T20:01:45;17.90;99.90
11280;DHT22;5696;50.928;6.960;2022-10-16T20:04:12;17.90;99.90
11280;DHT22;5696;50.928;6.960;2022-10-16T20:06:41;17.90;99.90
11280;DHT22;5696;50.928;6.960;2022-10-16T20:09:07;17.90;99.90
11280;DHT22;5696;50.928;6.960;2022-10-16T20:11:34;17.80;99.90
11280;DHT22;5696;50.928;6.960;2022-10-16T20:14:01;17.80;99.90
11280;DHT22;5696;50.928;6.960;2022-10-16T20:16:27;17.80;99.90
11280;DHT22;5696;50.928;6.960;2022-10-16T20:18:54;17.80;99.90
11280;DHT22;5696;50.928;6.960;2022-10-16T20:21:24;17.80;99.90
11280;DHT22;5696;50.928;6.960;2022-10-16T20:23:51;17.80;99.90
11280;DHT22;5696;50.928;6.960;2022-10-16T20:26:18;17.80;99.90
11280;DHT22;5696;50.928;6.960;2022-10-16T20:28:45;17.80;99.90
11280;DHT22;5696;50.928;6.960;2022-10-16T20:31:15;17.80;99.90
11280;DHT22;5696;50.928;6.960;2022-10-16T20:33:43;17.70;99.90
11280;DHT22;5696;50.928;6.960;2022-10-16T20:36:14;17.70;99.90
11280;DHT22;5696;50.928;6.960;2022-10-16T20:38:40;17.70;99.90
11280;DHT22;5696;50.928;6.960;2022-10-16T20:41:07;17.70;99.90
11280;DHT22;5696;50.928;6.960;2022-10-16T20:43:34;17.70;99.90
11280;DHT22;5696;50.928;6.960;2022-10-16T20:46:02;17.60;99.90
11280;DHT22;5696;50.928;6.960;2022-10-16T20:48:29;17.60;99.90
11280;DHT22;5696;50.928;6.960;2022-10-16T20:50:54;17.50;99.90
11280;DHT22;5696;50.928;6.960;2022-10-16T20:53:20;17.50;99.90
11280;DHT22;5696;50.928;6.960;2022-10-16T20:55:46;17.50;99.90
11280;DHT22;5696;50.928;6.960;2022-10-16T20:58:12;17.40;99.90
11280;DHT22;5696;50.928;6.960;2022-10-16T21:00:38;17.30;99.90
11280;DHT22;5696;50.928;6.960;2022-10-16T21:03:04;17.30;99.90
11280;DHT22;5696;50.928;6.960;2022-10-16T21:05:30;17.20;99.90
11280;DHT22;5696;50.928;6.960;2022-10-16T21:07:59;17.20;99.90
11280;DHT22;5696;50.928;6.960;2022-10-16T21:10:25;17.20;99.90
11280;DHT22;5696;50.928;6.960;2022-10-16T21:12:53;17.10;99.90
11280;DHT22;5696;50.928;6.960;2022-10-16T21:15:19;17.10;99.90
11280;DHT22;5696;50.928;6.960;2022-10-16T21:17:45;17.00;99.90
11280;DHT22;5696;50.928;6.960;2022-10-16T21:20:11;17.00;99.90
11280;DHT22;5696;50.928;6.960;2022-10-16T21:22:36;17.00;99.90
11280;DHT22;5696;50.928;6.960;2022-10-16T21:25:03;17.00;99.90
11280;DHT22;5696;50.928;6.960;2022-10-16T21:27:28;16.90;99.90
11280;DHT22;5696;50.928;6.960;2022-10-16T21:29:54;16.90;99.90
11280;DHT22;5696;50.928;6.960;2022-10-16T21:32:20;16.90;99.90
11280;DHT22;5696;50.928;6.960;2022-10-16T21:34:46;16.90;99.90
11280;DHT22;5696;50.928;6.960;2022-10-16T21:37:12;16.90;99.90
11280;DHT22;5696;50.928;6.960;2022-10-16T21:39:38;16.90;99.90
11280;DHT22;5696;50.928;6.960;2022-10-16T21:42:03;16.90;99.90
11280;DHT22;5696;50.928;6.960;2022-10-16T21:44:29;16.90;99.90
11280;DHT22;5696;50.928;6.960;2022-10-16T21:46:54;16.90;99.90
11280;DHT22;5696;50.928;6.960;2022-10-16T21:49:20;16.90;99.90
11280;DHT22;5696;50.928;6.960;2022-10-16T21:51:48;16.90;99.90
11280;DHT22;5696;50.928;6.960;2022-10-16T21:54:16;16.80;99.90
11280;DHT22;5696;50.928;6.960;2022-10-16T21:56:42;16.80;99.90
11280;DHT22;5696;50.928;6.960;2022-10-16T21:59:10;16.90;99.90
11280;DHT22;5696;50.928;6.960;2022-10-16T22:01:36;16.80;99.90
11280;DHT22;5696;50.928;6.960;2022-10-16T22:04:02;16.90;99.90
11280;DHT22;5696;50.928;6.960;2022-10-16T22:06:28;16.90;99.90
11280;DHT22;5696;50.928;6.960;2022-10-16T22:08:58;16.80;99.90
